sensor_id;sensor_type;location;lat;lon;timestamp;temperature;humidity
75615;DHT22;64199;48.578;-4.520;2023-03-01T00:01:00;23.00;42.90
75615;DHT22;64199;48.578;-4.520;2023-03-01T00:03:25;23.00;43.60
75615;DHT22;64199;48.578;-4.520;2023-03-01T00:05:51;23.00;43.60
75615;DHT22;64199;48.578;-4.520;2023-03-01T00:08:17;23.10;43.00
75615;DHT22;64199;48.578;-4.520;2023-03-01T00:10:42;23.10;43.00
75615;DHT22;64199;48.578;-4.520;2023-03-01T00:13:08;23.10;43.10
75615;DHT22;64199;48.578;-4.520;2023-03-01T00:15:37;23.10;43.00
75615;DHT22;64199;48.578;-4.520;2023-03-01T00:18:03;23.10;43.00
75615;DHT22;64199;48.578;-4.520;2023-03-01T00:20:28;23.10;43.00
75615;DHT22;64199;48.578;-4.520;2023-03-01T00:22:56;23.10;43.00
75615;DHT22;64199;48.578;-4.520;2023-03-01T00:25:21;23.10;43.00
75615;DHT22;64199;48.578;-4.520;2023-03-01T00:27:47;23.10;43.00
75615;DHT22;64199;48.578;-4.520;2023-03-01T00:30:14;23.10;42.90
75615;DHT22;64199;48.578;-4.520;2023-03-01T00:32:40;23.10;43.00
75615;DHT22;64199;48.578;-4.520;2023-03-01T00:35:05;23.10;43.00
75615;DHT22;64199;48.578;-4.520;2023-03-01T00:37:31;23.10;42.90
75615;DHT22;64199;48.578;-4.520;2023-03-01T00:39:57;23.10;43.00
75615;DHT22;64199;48.578;-4.520;2023-03-01T00:42:23;23.10;43.00
75615;DHT22;64199;48.578;-4.520;2023-03-01T00:44:48;23.10;42.90
75615;DHT22;64199;48.578;-4.520;2023-03-01T00:47:14;23.10;42.90
75615;DHT22;64199;48.578;-4.520;2023-03-01T00:49:40;23.10;42.90
75615;DHT22;64199;48.578;-4.520;2023-03-01T00:52:05;23.10;42.90
75615;DHT22;64199;48.578;-4.520;2023-03-01T00:54:31;23.10;42.90
75615;DHT22;64199;48.578;-4.520;2023-03-01T00:56:57;23.20;43.00
75615;DHT22;64199;48.578;-4.520;2023-03-01T00:59:22;23.10;42.90
75615;DHT22;64199;48.578;-4.520;2023-03-01T01:01:48;23.20;43.00
75615;DHT22;64199;48.578;-4.520;2023-03-01T01:04:14;23.20;43.00
75615;DHT22;64199;48.578;-4.520;2023-03-01T01:06:41;23.20;43.00
75615;DHT22;64199;48.578;-4.520;2023-03-01T01:09:11;23.20;43.10
75615;DHT22;64199;48.578;-4.520;2023-03-01T01:11:45;23.20;43.00
75615;DHT22;64199;48.578;-4.520;2023-03-01T01:14:11;23.20;43.00
75615;DHT22;64199;48.578;-4.520;2023-03-01T01:16:37;23.20;43.00
75615;DHT22;64199;48.578;-4.520;2023-03-01T01:19:03;23.20;43.10
75615;DHT22;64199;48.578;-4.520;2023-03-01T01:21:28;23.20;43.10
75615;DHT22;64199;48.578;-4.520;2023-03-01T01:23:54;23.30;43.10
75615;DHT22;64199;48.578;-4.520;2023-03-01T01:26:25;23.20;43.10
75615;DHT22;64199;48.578;-4.520;2023-03-01T01:28:50;23.20;43.10
75615;DHT22;64199;48.578;-4.520;2023-03-01T01:31:17;23.30;43.10
75615;DHT22;64199;48.578;-4.520;2023-03-01T01:33:43;23.30;43.10
75615;DHT22;64199;48.578;-4.520;2023-03-01T01:36:09;23.30;43.10
75615;DHT22;64199;48.578;-4.520;2023-03-01T01:38:35;23.30;43.10
75615;DHT22;64199;48.578;-4.520;2023-03-01T01:41:01;23.30;43.10
75615;DHT22;64199;48.578;-4.520;2023-03-01T01:43:28;23.30;43.10
75615;DHT22;64199;48.578;-4.520;2023-03-01T01:45:55;23.30;43.10
75615;DHT22;64199;48.578;-4.520;2023-03-01T01:48:23;23.30;43.10
75615;DHT22;64199;48.578;-4.520;2023-03-01T01:50:56;23.30;43.10
75615;DHT22;64199;48.578;-4.520;2023-03-01T01:53:24;23.30;43.10
75615;DHT22;64199;48.578;-4.520;2023-03-01T01:55:54;23.30;43.10
75615;DHT22;64199;48.578;-4.520;2023-03-01T01:58:22;23.30;43.10
75615;DHT22;64199;48.578;-4.520;2023-03-01T02:00:49;23.30;43.10
75615;DHT22;64199;48.578;-4.520;2023-03-01T02:03:18;23.30;43.10
75615;DHT22;64199;48.578;-4.520;2023-03-01T02:08:11;23.30;43.10
75615;DHT22;64199;48.578;-4.520;2023-03-01T02:10:38;23.30;43.10
75615;DHT22;64199;48.578;-4.520;2023-03-01T02:13:03;23.30;43.10
75615;DHT22;64199;48.578;-4.520;2023-03-01T02:15:35;23.30;43.10
75615;DHT22;64199;48.578;-4.520;2023-03-01T02:18:02;23.40;43.20
75615;DHT22;64199;48.578;-4.520;2023-03-01T02:20:33;23.30;43.10
75615;DHT22;64199;48.578;-4.520;2023-03-01T02:22:59;23.30;43.10
75615;DHT22;64199;48.578;-4.520;2023-03-01T02:30:48;23.40;43.10
75615;DHT22;64199;48.578;-4.520;2023-03-01T02:33:33;23.40;43.10
75615;DHT22;64199;48.578;-4.520;2023-03-01T02:36:12;23.40;43.10
75615;DHT22;64199;48.578;-4.520;2023-03-01T02:38:40;23.40;43.10
75615;DHT22;64199;48.578;-4.520;2023-03-01T02:41:06;23.40;43.10
75615;DHT22;64199;48.578;-4.520;2023-03-01T02:43:32;23.40;43.00
75615;DHT22;64199;48.578;-4.520;2023-03-01T02:46:03;23.40;43.10
75615;DHT22;64199;48.578;-4.520;2023-03-01T02:48:38;23.40;43.10
75615;DHT22;64199;48.578;-4.520;2023-03-01T02:54:05;23.40;43.00
75615;DHT22;64199;48.578;-4.520;2023-03-01T02:56:22;23.30;42.90
75615;DHT22;64199;48.578;-4.520;2023-03-01T02:58:47;23.30;42.80
75615;DHT22;64199;48.578;-4.520;2023-03-01T03:01:17;23.40;42.90
75615;DHT22;64199;48.578;-4.520;2023-03-01T03:03:43;23.30;42.90
75615;DHT22;64199;48.578;-4.520;2023-03-01T03:06:09;23.40;42.90
75615;DHT22;64199;48.578;-4.520;2023-03-01T03:08:35;23.30;42.80
75615;DHT22;64199;48.578;-4.520;2023-03-01T03:11:01;23.40;42.90
75615;DHT22;64199;48.578;-4.520;2023-03-01T03:13:26;23.40;43.00
75615;DHT22;64199;48.578;-4.520;2023-03-01T03:15:54;23.40;42.90
75615;DHT22;64199;48.578;-4.520;2023-03-01T03:18:20;23.40;42.90
75615;DHT22;64199;48.578;-4.520;2023-03-01T03:20:46;23.40;43.00
75615;DHT22;64199;48.578;-4.520;2023-03-01T03:23:12;23.40;43.10
75615;DHT22;64199;48.578;-4.520;2023-03-01T03:25:38;23.30;43.00
75615;DHT22;64199;48.578;-4.520;2023-03-01T03:28:04;23.40;43.00
75615;DHT22;64199;48.578;-4.520;2023-03-01T03:30:35;23.40;42.80
75615;DHT22;64199;48.578;-4.520;2023-03-01T03:33:01;23.40;42.80
75615;DHT22;64199;48.578;-4.520;2023-03-01T03:35:28;23.30;42.80
75615;DHT22;64199;48.578;-4.520;2023-03-01T03:37:55;23.40;43.00
75615;DHT22;64199;48.578;-4.520;2023-03-01T03:42:59;23.30;43.00
75615;DHT22;64199;48.578;-4.520;2023-03-01T03:45:24;23.30;42.90
75615;DHT22;64199;48.578;-4.520;2023-03-01T03:47:50;23.40;42.90
75615;DHT22;64199;48.578;-4.520;2023-03-01T03:50:16;23.30;42.90
75615;DHT22;64199;48.578;-4.520;2023-03-01T03:52:42;23.30;42.90
75615;DHT22;64199;48.578;-4.520;2023-03-01T03:55:08;23.30;42.90
75615;DHT22;64199;48.578;-4.520;2023-03-01T03:57:35;23.40;42.80
75615;DHT22;64199;48.578;-4.520;2023-03-01T04:00:01;23.40;42.80
75615;DHT22;64199;48.578;-4.520;2023-03-01T04:02:30;23.30;42.80
75615;DHT22;64199;48.578;-4.520;2023-03-01T04:04:56;23.30;42.80
75615;DHT22;64199;48.578;-4.520;2023-03-01T04:07:22;23.40;42.90
75615;DHT22;64199;48.578;-4.520;2023-03-01T04:09:48;23.40;42.90
75615;DHT22;64199;48.578;-4.520;2023-03-01T04:12:13;23.40;42.90
75615;DHT22;64199;48.578;-4.520;2023-03-01T04:14:39;23.40;42.90
75615;DHT22;64199;48.578;-4.520;2023-03-01T04:17:05;23.30;42.80
75615;DHT22;64199;48.578;-4.520;2023-03-01T04:19:31;23.30;42.80
75615;DHT22;64199;48.578;-4.520;2023-03-01T04:22:02;23.30;42.80
75615;DHT22;64199;48.578;-4.520;2023-03-01T04:24:33;23.30;42.90
75615;DHT22;64199;48.578;-4.520;2023-03-01T04:26:58;23.30;42.80
75615;DHT22;64199;48.578;-4.520;2023-03-01T04:29:24;23.30;42.80
75615;DHT22;64199;48.578;-4.520;2023-03-01T04:31:50;23.30;42.80
75615;DHT22;64199;48.578;-4.520;2023-03-01T04:34:16;23.40;42.90
75615;DHT22;64199;48.578;-4.520;2023-03-01T04:36:41;23.30;42.80
75615;DHT22;64199;48.578;-4.520;2023-03-01T04:39:07;23.30;42.80
75615;DHT22;64199;48.578;-4.520;2023-03-01T04:41:37;23.30;42.80
75615;DHT22;64199;48.578;-4.520;2023-03-01T04:44:06;23.30;42.80
75615;DHT22;64199;48.578;-4.520;2023-03-01T04:46:32;23.30;42.80
75615;DHT22;64199;48.578;-4.520;2023-03-01T04:48:58;23.30;42.90
75615;DHT22;64199;48.578;-4.520;2023-03-01T04:51:23;23.30;42.80
75615;DHT22;64199;48.578;-4.520;2023-03-01T04:53:49;23.30;42.80
75615;DHT22;64199;48.578;-4.520;2023-03-01T04:56:15;23.30;42.80
75615;DHT22;64199;48.578;-4.520;2023-03-01T04:58:43;23.30;42.80
75615;DHT22;64199;48.578;-4.520;2023-03-01T05:01:13;23.30;42.80
75615;DHT22;64199;48.578;-4.520;2023-03-01T05:03:49;23.30;42.80
75615;DHT22;64199;48.578;-4.520;2023-03-01T05:06:16;23.20;42.80
75615;DHT22;64199;48.578;-4.520;2023-03-01T05:08:42;23.30;42.80
75615;DHT22;64199;48.578;-4.520;2023-03-01T05:11:08;23.30;42.80
75615;DHT22;64199;48.578;-4.520;2023-03-01T05:13:34;23.30;42.90
75615;DHT22;64199;48.578;-4.520;2023-03-01T05:16:01;23.20;42.80
75615;DHT22;64199;48.578;-4.520;2023-03-01T05:18:27;23.20;42.80
75615;DHT22;64199;48.578;-4.520;2023-03-01T05:20:54;23.20;42.80
75615;DHT22;64199;48.578;-4.520;2023-03-01T05:23:22;23.20;42.80
75615;DHT22;64199;48.578;-4.520;2023-03-01T05:25:48;23.20;42.80
75615;DHT22;64199;48.578;-4.520;2023-03-01T05:28:14;23.20;42.80
75615;DHT22;64199;48.578;-4.520;2023-03-01T05:30:40;23.20;42.80
75615;DHT22;64199;48.578;-4.520;2023-03-01T05:33:06;23.20;42.80
75615;DHT22;64199;48.578;-4.520;2023-03-01T05:35:39;23.20;42.80
75615;DHT22;64199;48.578;-4.520;2023-03-01T05:38:06;23.20;42.80
75615;DHT22;64199;48.578;-4.520;2023-03-01T05:40:32;23.20;42.80
75615;DHT22;64199;48.578;-4.520;2023-03-01T05:42:58;23.20;42.80
75615;DHT22;64199;48.578;-4.520;2023-03-01T05:45:25;23.20;42.80
75615;DHT22;64199;48.578;-4.520;2023-03-01T05:47:51;23.20;42.90
75615;DHT22;64199;48.578;-4.520;2023-03-01T05:50:21;23.20;43.00
75615;DHT22;64199;48.578;-4.520;2023-03-01T05:52:51;23.20;43.10
75615;DHT22;64199;48.578;-4.520;2023-03-01T05:55:17;23.20;43.20
75615;DHT22;64199;48.578;-4.520;2023-03-01T05:57:44;23.20;43.10
75615;DHT22;64199;48.578;-4.520;2023-03-01T06:00:11;23.20;43.10
75615;DHT22;64199;48.578;-4.520;2023-03-01T06:02:37;23.20;43.00
75615;DHT22;64199;48.578;-4.520;2023-03-01T06:05:04;23.20;42.80
75615;DHT22;64199;48.578;-4.520;2023-03-01T06:07:31;23.20;42.90
75615;DHT22;64199;48.578;-4.520;2023-03-01T06:09:56;23.20;42.90
75615;DHT22;64199;48.578;-4.520;2023-03-01T06:12:22;23.10;42.90
75615;DHT22;64199;48.578;-4.520;2023-03-01T06:14:48;23.20;43.00
75615;DHT22;64199;48.578;-4.520;2023-03-01T06:17:14;23.10;42.90
75615;DHT22;64199;48.578;-4.520;2023-03-01T06:19:40;23.10;42.90
75615;DHT22;64199;48.578;-4.520;2023-03-01T06:22:06;23.10;42.90
75615;DHT22;64199;48.578;-4.520;2023-03-01T06:24:33;23.10;42.90
75615;DHT22;64199;48.578;-4.520;2023-03-01T06:26:59;23.10;42.90
75615;DHT22;64199;48.578;-4.520;2023-03-01T06:29:25;23.10;42.90
75615;DHT22;64199;48.578;-4.520;2023-03-01T06:31:51;23.10;42.90
75615;DHT22;64199;48.578;-4.520;2023-03-01T06:34:17;23.10;42.90
75615;DHT22;64199;48.578;-4.520;2023-03-01T06:36:43;23.10;42.90
75615;DHT22;64199;48.578;-4.520;2023-03-01T06:39:08;23.10;42.90
75615;DHT22;64199;48.578;-4.520;2023-03-01T06:41:34;23.10;43.00
75615;DHT22;64199;48.578;-4.520;2023-03-01T06:44:00;23.10;43.10
75615;DHT22;64199;48.578;-4.520;2023-03-01T06:46:26;23.10;43.80
75615;DHT22;64199;48.578;-4.520;2023-03-01T06:48:52;23.10;43.20
75615;DHT22;64199;48.578;-4.520;2023-03-01T06:51:18;23.10;43.10
75615;DHT22;64199;48.578;-4.520;2023-03-01T06:53:45;23.10;43.00
75615;DHT22;64199;48.578;-4.520;2023-03-01T06:56:11;23.10;43.10
75615;DHT22;64199;48.578;-4.520;2023-03-01T06:58:37;23.10;43.10
75615;DHT22;64199;48.578;-4.520;2023-03-01T07:01:06;23.10;43.10
75615;DHT22;64199;48.578;-4.520;2023-03-01T07:03:32;23.10;43.10
75615;DHT22;64199;48.578;-4.520;2023-03-01T07:05:58;23.10;43.10
75615;DHT22;64199;48.578;-4.520;2023-03-01T07:08:23;23.00;43.00
75615;DHT22;64199;48.578;-4.520;2023-03-01T07:10:54;23.00;43.10
75615;DHT22;64199;48.578;-4.520;2023-03-01T07:13:20;23.10;43.20
75615;DHT22;64199;48.578;-4.520;2023-03-01T07:15:46;23.10;43.10
75615;DHT22;64199;48.578;-4.520;2023-03-01T07:18:12;23.10;43.10
75615;DHT22;64199;48.578;-4.520;2023-03-01T07:20:37;23.10;43.10
75615;DHT22;64199;48.578;-4.520;2023-03-01T07:23:03;23.10;43.10
75615;DHT22;64199;48.578;-4.520;2023-03-01T07:25:30;23.10;43.10
75615;DHT22;64199;48.578;-4.520;2023-03-01T07:27:56;23.10;43.20
75615;DHT22;64199;48.578;-4.520;2023-03-01T07:30:21;23.10;43.10
75615;DHT22;64199;48.578;-4.520;2023-03-01T07:32:47;23.10;43.10
75615;DHT22;64199;48.578;-4.520;2023-03-01T07:35:13;23.10;43.10
75615;DHT22;64199;48.578;-4.520;2023-03-01T07:37:40;23.10;43.10
75615;DHT22;64199;48.578;-4.520;2023-03-01T07:40:06;23.10;43.10
75615;DHT22;64199;48.578;-4.520;2023-03-01T07:42:32;23.10;43.10
75615;DHT22;64199;48.578;-4.520;2023-03-01T07:44:57;23.10;43.20
75615;DHT22;64199;48.578;-4.520;2023-03-01T07:47:23;23.00;43.10
75615;DHT22;64199;48.578;-4.520;2023-03-01T07:49:49;23.00;42.90
75615;DHT22;64199;48.578;-4.520;2023-03-01T07:52:15;23.00;42.90
75615;DHT22;64199;48.578;-4.520;2023-03-01T07:54:42;23.00;42.90
75615;DHT22;64199;48.578;-4.520;2023-03-01T07:57:08;23.10;42.90
75615;DHT22;64199;48.578;-4.520;2023-03-01T07:59:33;23.00;43.00
75615;DHT22;64199;48.578;-4.520;2023-03-01T08:02:00;23.10;43.00
75615;DHT22;64199;48.578;-4.520;2023-03-01T08:04:26;23.00;43.00
75615;DHT22;64199;48.578;-4.520;2023-03-01T08:06:52;23.10;43.00
75615;DHT22;64199;48.578;-4.520;2023-03-01T08:09:18;23.00;43.00
75615;DHT22;64199;48.578;-4.520;2023-03-01T08:11:44;23.00;43.00
75615;DHT22;64199;48.578;-4.520;2023-03-01T08:14:09;23.00;43.00
75615;DHT22;64199;48.578;-4.520;2023-03-01T08:16:38;23.10;43.00
75615;DHT22;64199;48.578;-4.520;2023-03-01T08:19:04;23.00;43.00
75615;DHT22;64199;48.578;-4.520;2023-03-01T08:21:31;23.10;43.10
75615;DHT22;64199;48.578;-4.520;2023-03-01T08:23:57;23.00;43.00
75615;DHT22;64199;48.578;-4.520;2023-03-01T08:26:23;23.00;43.00
75615;DHT22;64199;48.578;-4.520;2023-03-01T08:28:48;23.00;43.00
75615;DHT22;64199;48.578;-4.520;2023-03-01T08:33:43;23.00;43.00
75615;DHT22;64199;48.578;-4.520;2023-03-01T08:36:09;23.00;43.00
75615;DHT22;64199;48.578;-4.520;2023-03-01T08:38:34;23.00;43.00
75615;DHT22;64199;48.578;-4.520;2023-03-01T08:41:01;23.00;43.00
75615;DHT22;64199;48.578;-4.520;2023-03-01T08:43:26;23.00;43.00
75615;DHT22;64199;48.578;-4.520;2023-03-01T08:45:52;23.10;43.00
75615;DHT22;64199;48.578;-4.520;2023-03-01T08:48:18;23.00;42.90
75615;DHT22;64199;48.578;-4.520;2023-03-01T08:50:43;23.00;43.00
75615;DHT22;64199;48.578;-4.520;2023-03-01T08:53:09;23.00;43.00
75615;DHT22;64199;48.578;-4.520;2023-03-01T08:55:35;23.00;42.90
75615;DHT22;64199;48.578;-4.520;2023-03-01T08:58:00;23.00;42.90
75615;DHT22;64199;48.578;-4.520;2023-03-01T09:00:26;23.00;42.90
75615;DHT22;64199;48.578;-4.520;2023-03-01T09:02:51;23.00;42.90
75615;DHT22;64199;48.578;-4.520;2023-03-01T09:05:17;23.00;42.90
75615;DHT22;64199;48.578;-4.520;2023-03-01T09:07:43;23.00;42.90
75615;DHT22;64199;48.578;-4.520;2023-03-01T09:10:08;23.00;42.90
75615;DHT22;64199;48.578;-4.520;2023-03-01T09:12:36;23.00;42.90
75615;DHT22;64199;48.578;-4.520;2023-03-01T09:15:02;23.00;42.90
75615;DHT22;64199;48.578;-4.520;2023-03-01T09:17:27;23.00;42.90
75615;DHT22;64199;48.578;-4.520;2023-03-01T09:19:53;23.00;42.90
75615;DHT22;64199;48.578;-4.520;2023-03-01T09:22:18;23.00;42.90
75615;DHT22;64199;48.578;-4.520;2023-03-01T09:24:44;23.00;42.90
75615;DHT22;64199;48.578;-4.520;2023-03-01T09:27:10;23.00;42.90
75615;DHT22;64199;48.578;-4.520;2023-03-01T09:29:36;23.00;43.50
75615;DHT22;64199;48.578;-4.520;2023-03-01T09:32:02;23.00;42.80
75615;DHT22;64199;48.578;-4.520;2023-03-01T09:34:27;23.10;42.90
75615;DHT22;64199;48.578;-4.520;2023-03-01T09:36:53;23.00;42.90
75615;DHT22;64199;48.578;-4.520;2023-03-01T09:39:19;23.10;43.00
75615;DHT22;64199;48.578;-4.520;2023-03-01T09:42:04;23.10;43.00
75615;DHT22;64199;48.578;-4.520;2023-03-01T09:46:58;23.10;43.00
75615;DHT22;64199;48.578;-4.520;2023-03-01T09:49:28;23.10;43.00
75615;DHT22;64199;48.578;-4.520;2023-03-01T09:54:21;23.10;42.90
75615;DHT22;64199;48.578;-4.520;2023-03-01T09:56:53;23.10;42.90
75615;DHT22;64199;48.578;-4.520;2023-03-01T09:59:26;23.10;42.90
75615;DHT22;64199;48.578;-4.520;2023-03-01T10:09:36;23.10;42.90
75615;DHT22;64199;48.578;-4.520;2023-03-01T10:12:02;23.10;43.00
75615;DHT22;64199;48.578;-4.520;2023-03-01T10:14:39;23.10;42.90
75615;DHT22;64199;48.578;-4.520;2023-03-01T10:17:24;23.20;43.00
75615;DHT22;64199;48.578;-4.520;2023-03-01T10:19:51;23.20;43.00
75615;DHT22;64199;48.578;-4.520;2023-03-01T10:22:37;23.20;43.00
75615;DHT22;64199;48.578;-4.520;2023-03-01T10:25:02;23.20;43.00
75615;DHT22;64199;48.578;-4.520;2023-03-01T10:32:39;23.20;43.00
75615;DHT22;64199;48.578;-4.520;2023-03-01T10:40:27;23.20;43.00
75615;DHT22;64199;48.578;-4.520;2023-03-01T10:42:53;23.20;43.00
75615;DHT22;64199;48.578;-4.520;2023-03-01T10:50:45;23.20;43.00
75615;DHT22;64199;48.578;-4.520;2023-03-01T10:53:28;23.20;43.50
75615;DHT22;64199;48.578;-4.520;2023-03-01T10:56:02;23.20;42.80
75615;DHT22;64199;48.578;-4.520;2023-03-01T10:58:28;23.20;42.80
75615;DHT22;64199;48.578;-4.520;2023-03-01T11:00:55;23.20;42.80
75615;DHT22;64199;48.578;-4.520;2023-03-01T11:03:22;23.20;42.80
75615;DHT22;64199;48.578;-4.520;2023-03-01T11:08:31;23.20;42.90
75615;DHT22;64199;48.578;-4.520;2023-03-01T11:13:34;23.20;42.80
75615;DHT22;64199;48.578;-4.520;2023-03-01T11:16:01;23.20;42.80
75615;DHT22;64199;48.578;-4.520;2023-03-01T11:18:27;23.20;42.80
75615;DHT22;64199;48.578;-4.520;2023-03-01T11:20:55;23.20;42.80
75615;DHT22;64199;48.578;-4.520;2023-03-01T11:23:21;23.30;42.90
75615;DHT22;64199;48.578;-4.520;2023-03-01T11:25:49;23.30;42.80
75615;DHT22;64199;48.578;-4.520;2023-03-01T11:28:17;23.30;42.80
75615;DHT22;64199;48.578;-4.520;2023-03-01T11:30:51;23.30;42.80
75615;DHT22;64199;48.578;-4.520;2023-03-01T11:35:55;23.30;42.80
75615;DHT22;64199;48.578;-4.520;2023-03-01T11:38:23;23.30;42.80
75615;DHT22;64199;48.578;-4.520;2023-03-01T11:40:52;23.30;42.80
75615;DHT22;64199;48.578;-4.520;2023-03-01T11:43:27;23.40;42.80
75615;DHT22;64199;48.578;-4.520;2023-03-01T11:46:08;23.40;42.80
75615;DHT22;64199;48.578;-4.520;2023-03-01T11:57:09;23.40;42.80
75615;DHT22;64199;48.578;-4.520;2023-03-01T12:07:24;23.40;42.80
75615;DHT22;64199;48.578;-4.520;2023-03-01T12:10:02;23.40;42.80
75615;DHT22;64199;48.578;-4.520;2023-03-01T12:28:29;23.40;42.70
75615;DHT22;64199;48.578;-4.520;2023-03-01T12:34:17;23.40;42.80
75615;DHT22;64199;48.578;-4.520;2023-03-01T12:44:42;23.50;42.80
75615;DHT22;64199;48.578;-4.520;2023-03-01T12:49:35;23.50;42.80
75615;DHT22;64199;48.578;-4.520;2023-03-01T12:52:50;23.50;42.80
75615;DHT22;64199;48.578;-4.520;2023-03-01T12:54:49;23.50;42.80
75615;DHT22;64199;48.578;-4.520;2023-03-01T13:02:35;23.50;42.70
75615;DHT22;64199;48.578;-4.520;2023-03-01T13:05:15;23.50;42.60
75615;DHT22;64199;48.578;-4.520;2023-03-01T13:17:48;23.50;42.60
75615;DHT22;64199;48.578;-4.520;2023-03-01T13:20:15;23.50;42.60
75615;DHT22;64199;48.578;-4.520;2023-03-01T13:22:42;23.50;42.70
75615;DHT22;64199;48.578;-4.520;2023-03-01T13:25:14;23.50;42.50
75615;DHT22;64199;48.578;-4.520;2023-03-01T13:27:41;23.50;42.60
75615;DHT22;64199;48.578;-4.520;2023-03-01T13:32:51;23.60;42.60
75615;DHT22;64199;48.578;-4.520;2023-03-01T13:37:43;23.50;42.60
75615;DHT22;64199;48.578;-4.520;2023-03-01T13:42:43;23.50;42.40
75615;DHT22;64199;48.578;-4.520;2023-03-01T13:47:42;23.50;42.50
75615;DHT22;64199;48.578;-4.520;2023-03-01T13:50:16;23.50;42.50
75615;DHT22;64199;48.578;-4.520;2023-03-01T13:52:48;23.50;42.60
75615;DHT22;64199;48.578;-4.520;2023-03-01T13:57:45;23.50;42.50
75615;DHT22;64199;48.578;-4.520;2023-03-01T14:00:25;23.50;42.40
75615;DHT22;64199;48.578;-4.520;2023-03-01T14:03:01;23.50;42.50
75615;DHT22;64199;48.578;-4.520;2023-03-01T14:05:27;23.50;42.60
75615;DHT22;64199;48.578;-4.520;2023-03-01T14:07:54;23.40;42.50
75615;DHT22;64199;48.578;-4.520;2023-03-01T14:10:19;23.50;42.60
75615;DHT22;64199;48.578;-4.520;2023-03-01T14:15:28;23.40;42.30
75615;DHT22;64199;48.578;-4.520;2023-03-01T14:18:04;23.40;42.30
75615;DHT22;64199;48.578;-4.520;2023-03-01T14:20:32;23.40;42.20
75615;DHT22;64199;48.578;-4.520;2023-03-01T14:23:02;23.40;42.20
75615;DHT22;64199;48.578;-4.520;2023-03-01T14:25:29;23.40;42.20
75615;DHT22;64199;48.578;-4.520;2023-03-01T14:28:04;23.40;42.20
75615;DHT22;64199;48.578;-4.520;2023-03-01T14:31:23;23.40;42.20
75615;DHT22;64199;48.578;-4.520;2023-03-01T14:33:30;23.40;42.20
75615;DHT22;64199;48.578;-4.520;2023-03-01T14:36:13;23.40;42.20
75615;DHT22;64199;48.578;-4.520;2023-03-01T14:38:40;23.40;42.60
75615;DHT22;64199;48.578;-4.520;2023-03-01T14:41:07;23.40;42.90
75615;DHT22;64199;48.578;-4.520;2023-03-01T14:43:36;23.40;42.80
75615;DHT22;64199;48.578;-4.520;2023-03-01T14:46:03;23.40;42.80
75615;DHT22;64199;48.578;-4.520;2023-03-01T14:48:28;23.40;42.60
75615;DHT22;64199;48.578;-4.520;2023-03-01T14:50:55;23.40;42.40
75615;DHT22;64199;48.578;-4.520;2023-03-01T14:53:22;23.40;42.50
75615;DHT22;64199;48.578;-4.520;2023-03-01T14:56:21;23.40;42.50
75615;DHT22;64199;48.578;-4.520;2023-03-01T14:58:40;23.40;43.00
75615;DHT22;64199;48.578;-4.520;2023-03-01T15:01:06;23.40;42.40
75615;DHT22;64199;48.578;-4.520;2023-03-01T15:03:34;23.40;42.40
75615;DHT22;64199;48.578;-4.520;2023-03-01T15:06:03;23.40;42.40
75615;DHT22;64199;48.578;-4.520;2023-03-01T15:08:29;23.40;42.30
75615;DHT22;64199;48.578;-4.520;2023-03-01T15:10:59;23.40;43.00
75615;DHT22;64199;48.578;-4.520;2023-03-01T15:13:28;23.40;42.30
75615;DHT22;64199;48.578;-4.520;2023-03-01T15:16:18;23.40;42.30
75615;DHT22;64199;48.578;-4.520;2023-03-01T15:19:01;23.40;42.30
75615;DHT22;64199;48.578;-4.520;2023-03-01T15:21:29;23.40;42.20
75615;DHT22;64199;48.578;-4.520;2023-03-01T15:23:57;23.40;42.00
75615;DHT22;64199;48.578;-4.520;2023-03-01T15:26:33;23.30;42.00
75615;DHT22;64199;48.578;-4.520;2023-03-01T15:29:00;23.40;42.20
75615;DHT22;64199;48.578;-4.520;2023-03-01T15:31:28;23.30;42.10
75615;DHT22;64199;48.578;-4.520;2023-03-01T15:34:37;23.30;42.10
75615;DHT22;64199;48.578;-4.520;2023-03-01T15:36:45;23.30;42.10
75615;DHT22;64199;48.578;-4.520;2023-03-01T15:41:54;23.40;42.20
75615;DHT22;64199;48.578;-4.520;2023-03-01T15:44:27;23.30;42.10
75615;DHT22;64199;48.578;-4.520;2023-03-01T15:46:55;23.30;42.10
75615;DHT22;64199;48.578;-4.520;2023-03-01T15:52:01;23.20;42.00
75615;DHT22;64199;48.578;-4.520;2023-03-01T15:54:28;23.20;41.90
75615;DHT22;64199;48.578;-4.520;2023-03-01T15:56:54;23.30;42.00
75615;DHT22;64199;48.578;-4.520;2023-03-01T15:59:21;23.20;41.90
75615;DHT22;64199;48.578;-4.520;2023-03-01T16:01:48;23.20;42.00
75615;DHT22;64199;48.578;-4.520;2023-03-01T16:04:17;23.20;41.90
75615;DHT22;64199;48.578;-4.520;2023-03-01T16:06:48;23.20;41.90
75615;DHT22;64199;48.578;-4.520;2023-03-01T16:09:24;23.20;41.90
75615;DHT22;64199;48.578;-4.520;2023-03-01T16:11:51;23.30;42.00
75615;DHT22;64199;48.578;-4.520;2023-03-01T16:14:18;23.20;41.80
75615;DHT22;64199;48.578;-4.520;2023-03-01T16:16:44;23.20;41.80
75615;DHT22;64199;48.578;-4.520;2023-03-01T16:19:10;23.20;41.80
75615;DHT22;64199;48.578;-4.520;2023-03-01T16:21:37;23.20;41.80
75615;DHT22;64199;48.578;-4.520;2023-03-01T16:24:03;23.20;41.80
75615;DHT22;64199;48.578;-4.520;2023-03-01T16:26:29;23.20;41.80
75615;DHT22;64199;48.578;-4.520;2023-03-01T16:28:56;23.20;41.80
75615;DHT22;64199;48.578;-4.520;2023-03-01T16:31:22;23.20;41.80
75615;DHT22;64199;48.578;-4.520;2023-03-01T16:33:49;23.20;41.80
75615;DHT22;64199;48.578;-4.520;2023-03-01T16:36:17;23.20;41.80
75615;DHT22;64199;48.578;-4.520;2023-03-01T16:38:43;23.20;41.80
75615;DHT22;64199;48.578;-4.520;2023-03-01T16:41:11;23.20;41.80
75615;DHT22;64199;48.578;-4.520;2023-03-01T16:43:37;23.10;41.70
75615;DHT22;64199;48.578;-4.520;2023-03-01T16:46:09;23.20;41.80
75615;DHT22;64199;48.578;-4.520;2023-03-01T16:48:34;23.10;41.70
75615;DHT22;64199;48.578;-4.520;2023-03-01T16:51:01;23.20;41.80
75615;DHT22;64199;48.578;-4.520;2023-03-01T16:53:28;23.10;41.70
75615;DHT22;64199;48.578;-4.520;2023-03-01T16:55:56;23.10;41.70
75615;DHT22;64199;48.578;-4.520;2023-03-01T16:58:23;23.10;41.70
75615;DHT22;64199;48.578;-4.520;2023-03-01T17:00:50;23.10;41.90
75615;DHT22;64199;48.578;-4.520;2023-03-01T17:03:16;23.10;41.70
75615;DHT22;64199;48.578;-4.520;2023-03-01T17:05:42;23.10;41.70
75615;DHT22;64199;48.578;-4.520;2023-03-01T17:08:08;23.10;41.60
75615;DHT22;64199;48.578;-4.520;2023-03-01T17:10:34;23.10;41.60
75615;DHT22;64199;48.578;-4.520;2023-03-01T17:12:59;23.00;41.60
75615;DHT22;64199;48.578;-4.520;2023-03-01T17:15:25;23.10;41.60
75615;DHT22;64199;48.578;-4.520;2023-03-01T17:17:51;23.10;42.30
75615;DHT22;64199;48.578;-4.520;2023-03-01T17:20:17;23.10;41.60
75615;DHT22;64199;48.578;-4.520;2023-03-01T17:22:43;23.10;41.60
75615;DHT22;64199;48.578;-4.520;2023-03-01T17:25:09;23.00;41.60
75615;DHT22;64199;48.578;-4.520;2023-03-01T17:27:38;23.00;41.60
75615;DHT22;64199;48.578;-4.520;2023-03-01T17:30:05;23.00;41.60
75615;DHT22;64199;48.578;-4.520;2023-03-01T17:32:31;23.00;41.60